createdAt,value
2017-10-09T00:02:28.677Z,20.30
2017-10-09T00:04:57.390Z,20.20
2017-10-09T00:07:26.251Z,20.30
2017-10-09T00:09:56.122Z,20.20
2017-10-09T00:12:24.952Z,20.20
2017-10-09T00:14:53.906Z,20.20
2017-10-09T00:17:22.696Z,20.20
2017-10-09T00:19:51.417Z,20.20
2017-10-09T00:22:20.258Z,20.20
2017-10-09T00:24:51.128Z,20.20
2017-10-09T00:27:20.721Z,20.20
2017-10-09T00:29:51.115Z,20.30
2017-10-09T00:32:20.737Z,20.20
2017-10-09T00:34:50.228Z,20.20
2017-10-09T00:37:22.528Z,20.20
2017-10-09T00:39:53.442Z,20.10
2017-10-09T00:42:22.811Z,20.10
2017-10-09T00:44:52.376Z,20.10
2017-10-09T00:47:22.005Z,20.10
2017-10-09T00:49:50.906Z,20.00
2017-10-09T00:52:20.037Z,20.00
2017-10-09T00:54:49.711Z,19.90
2017-10-09T00:57:18.534Z,19.90
2017-10-09T00:59:48.158Z,19.90
2017-10-09T01:02:17.125Z,19.90
2017-10-09T01:04:45.852Z,19.90
2017-10-09T01:07:15.280Z,19.80
2017-10-09T01:09:43.981Z,19.70
2017-10-09T01:12:13.045Z,19.70
2017-10-09T01:14:43.579Z,19.70
2017-10-09T01:17:13.112Z,19.80
2017-10-09T01:19:42.807Z,19.80
2017-10-09T01:22:11.622Z,19.80
2017-10-09T01:24:40.356Z,19.70
2017-10-09T01:27:09.078Z,19.70
2017-10-09T01:29:38.437Z,19.60
2017-10-09T01:32:07.989Z,19.60
2017-10-09T01:34:36.581Z,19.60
2017-10-09T01:37:05.302Z,19.60
2017-10-09T01:39:34.086Z,19.60
2017-10-09T01:42:03.863Z,19.50
2017-10-09T01:44:32.508Z,19.50
2017-10-09T01:47:02.274Z,19.50
2017-10-09T01:49:31.006Z,19.50
2017-10-09T01:51:59.688Z,19.50
2017-10-09T01:54:28.364Z,19.50
2017-10-09T01:56:57.001Z,19.60
2017-10-09T01:59:25.807Z,19.50
2017-10-09T02:01:54.589Z,19.50
2017-10-09T02:04:23.545Z,19.60
2017-10-09T02:06:52.300Z,19.60
2017-10-09T02:09:21.390Z,19.60
2017-10-09T02:11:50.454Z,19.60
2017-10-09T02:14:19.407Z,19.50
2017-10-09T02:16:48.281Z,19.50
2017-10-09T02:19:17.016Z,19.50
2017-10-09T02:21:45.839Z,19.50
2017-10-09T02:24:14.598Z,19.50
2017-10-09T02:26:44.117Z,19.50
2017-10-09T02:29:12.817Z,19.40
2017-10-09T02:31:41.621Z,19.50
2017-10-09T02:34:10.210Z,19.50
2017-10-09T02:36:38.994Z,19.50
2017-10-09T02:39:07.889Z,19.50
2017-10-09T02:41:37.541Z,19.50
2017-10-09T02:44:06.958Z,19.50
2017-10-09T02:46:35.699Z,19.50
2017-10-09T02:49:05.275Z,19.40
2017-10-09T02:51:35.000Z,19.40
2017-10-09T02:54:03.753Z,19.50
2017-10-09T02:56:32.532Z,19.50
2017-10-09T02:59:02.069Z,19.50
2017-10-09T03:01:31.602Z,19.40
2017-10-09T03:04:00.192Z,19.40
2017-10-09T03:06:29.699Z,19.40
2017-10-09T03:08:58.386Z,19.40
2017-10-09T03:11:27.120Z,19.50
2017-10-09T03:13:55.804Z,19.50
2017-10-09T03:16:24.571Z,19.50
2017-10-09T03:18:53.225Z,19.50
2017-10-09T03:21:23.285Z,19.50
2017-10-09T03:24:07.848Z,19.50
2017-10-09T03:26:39.630Z,19.40
2017-10-09T03:32:10.597Z,19.40
2017-10-09T03:34:39.363Z,19.40
2017-10-09T03:37:08.094Z,19.40
2017-10-09T03:39:36.824Z,19.40
2017-10-09T03:42:05.694Z,19.30
2017-10-09T03:44:35.190Z,19.30
2017-10-09T03:47:03.940Z,19.30
2017-10-09T03:49:32.628Z,19.20
2017-10-09T03:52:01.384Z,19.20
2017-10-09T03:54:30.051Z,19.20
2017-10-09T03:56:58.783Z,19.10
2017-10-09T03:59:27.411Z,19.10
2017-10-09T04:01:56.161Z,19.10
2017-10-09T04:04:25.427Z,19.10
2017-10-09T04:06:55.219Z,19.10
2017-10-09T04:09:25.154Z,19.20
2017-10-09T04:11:53.948Z,19.10
2017-10-09T04:14:23.627Z,19.20
2017-10-09T04:16:53.520Z,19.20
2017-10-09T04:19:23.314Z,19.20
2017-10-09T04:21:52.056Z,19.20
2017-10-09T04:24:21.761Z,19.20
2017-10-09T04:26:50.489Z,19.20
2017-10-09T04:29:19.299Z,19.20
2017-10-09T04:31:48.012Z,19.20
2017-10-09T04:34:17.553Z,19.20
2017-10-09T04:36:46.366Z,19.20
2017-10-09T04:39:15.139Z,19.20
2017-10-09T04:41:44.626Z,19.20
2017-10-09T04:44:13.513Z,19.20
2017-10-09T04:46:42.265Z,19.20
2017-10-09T04:49:11.001Z,19.20
2017-10-09T04:51:39.776Z,19.20
2017-10-09T04:54:08.574Z,19.30
2017-10-09T04:56:38.328Z,19.20
2017-10-09T04:59:07.007Z,19.20
2017-10-09T05:01:37.749Z,19.30
2017-10-09T05:04:06.553Z,19.30
2017-10-09T05:06:35.274Z,19.30
2017-10-09T05:09:04.180Z,19.30
2017-10-09T05:11:32.889Z,19.40
2017-10-09T05:14:01.614Z,19.40
2017-10-09T05:16:30.347Z,19.40
2017-10-09T05:18:59.421Z,19.30
2017-10-09T05:21:29.503Z,19.30
2017-10-09T05:23:59.302Z,19.30
2017-10-09T05:26:29.165Z,19.30
2017-10-09T05:28:57.911Z,19.30
2017-10-09T05:31:28.010Z,19.30
2017-10-09T05:33:56.685Z,19.30
2017-10-09T05:36:25.682Z,19.30
2017-10-09T05:38:54.357Z,19.40
2017-10-09T05:41:23.463Z,19.30
2017-10-09T05:43:52.281Z,19.30
2017-10-09T05:46:21.115Z,19.40
2017-10-09T05:48:49.894Z,19.40
2017-10-09T05:51:18.535Z,19.40
2017-10-09T05:53:48.239Z,19.40
2017-10-09T05:56:17.025Z,19.40
2017-10-09T05:58:45.967Z,19.40
2017-10-09T06:01:14.770Z,19.50
2017-10-09T06:03:43.426Z,19.50
2017-10-09T06:06:12.213Z,19.50
2017-10-09T06:08:40.890Z,19.50
2017-10-09T06:11:09.641Z,19.50
2017-10-09T06:13:38.423Z,19.50
2017-10-09T06:16:07.246Z,19.50
2017-10-09T06:18:35.983Z,19.50
2017-10-09T06:21:04.727Z,19.50
2017-10-09T06:23:33.467Z,19.50
2017-10-09T06:26:03.202Z,19.50
2017-10-09T06:28:32.382Z,19.50
2017-10-09T06:31:01.629Z,19.50
2017-10-09T06:33:31.429Z,19.60
2017-10-09T06:36:00.971Z,19.60
2017-10-09T06:38:29.671Z,19.60
2017-10-09T06:40:59.046Z,19.70
2017-10-09T06:43:27.726Z,19.70
2017-10-09T06:45:56.466Z,19.70
2017-10-09T06:48:25.244Z,19.80
2017-10-09T06:50:53.890Z,19.90
2017-10-09T06:53:22.694Z,19.90
2017-10-09T06:55:51.652Z,20.00
2017-10-09T06:58:21.140Z,20.00
2017-10-09T07:00:49.823Z,20.10
2017-10-09T07:03:18.712Z,20.20
2017-10-09T07:05:47.535Z,20.20
2017-10-09T07:08:16.268Z,20.30
2017-10-09T07:10:45.879Z,21.20
2017-10-09T07:13:14.903Z,21.20
2017-10-09T07:15:43.673Z,22.30
2017-10-09T07:18:12.517Z,23.50
2017-10-09T07:20:41.684Z,24.10
2017-10-09T07:23:10.356Z,24.70
2017-10-09T07:25:39.082Z,25.20
2017-10-09T07:28:07.834Z,25.80
2017-10-09T07:30:42.460Z,25.80
2017-10-09T07:33:11.173Z,26.30
2017-10-09T07:35:41.398Z,26.10
2017-10-09T07:38:10.809Z,26.60
2017-10-09T07:40:40.399Z,26.60
2017-10-09T07:43:09.209Z,27.10
2017-10-09T07:45:38.189Z,27.00
2017-10-09T07:48:07.226Z,26.50
2017-10-09T07:50:36.168Z,26.00
2017-10-09T07:53:05.608Z,25.50
2017-10-09T07:55:35.917Z,24.60
2017-10-09T07:58:04.843Z,24.60
2017-10-09T08:00:34.472Z,24.10
2017-10-09T08:03:04.178Z,22.80
2017-10-09T08:05:32.977Z,22.80
2017-10-09T08:08:02.728Z,23.00
2017-10-09T08:10:31.827Z,23.20
2017-10-09T08:13:00.803Z,23.00
2017-10-09T08:15:29.763Z,22.50
2017-10-09T08:17:59.620Z,22.30
2017-10-09T08:20:28.467Z,22.40
2017-10-09T08:22:57.258Z,22.60
2017-10-09T08:25:25.918Z,23.10
2017-10-09T08:27:54.674Z,23.30
2017-10-09T08:30:23.359Z,22.90
2017-10-09T08:32:52.394Z,22.70
2017-10-09T08:35:21.093Z,22.70
2017-10-09T08:37:49.767Z,22.60
2017-10-09T08:40:19.350Z,22.50
2017-10-09T08:42:48.135Z,22.50
2017-10-09T08:45:18.452Z,22.50
2017-10-09T08:47:51.544Z,22.60
2017-10-09T08:50:21.191Z,23.10
2017-10-09T08:52:50.493Z,23.10
2017-10-09T08:55:19.525Z,23.30
2017-10-09T08:57:48.330Z,23.60
2017-10-09T09:00:17.659Z,23.70
2017-10-09T09:02:47.326Z,23.60
2017-10-09T09:05:16.224Z,23.60
2017-10-09T09:07:45.443Z,23.60
2017-10-09T09:10:14.658Z,23.50
2017-10-09T09:12:44.291Z,23.40
2017-10-09T09:15:13.029Z,23.40
2017-10-09T09:17:41.933Z,23.50
2017-10-09T09:20:11.713Z,23.50
2017-10-09T09:22:40.924Z,23.60
2017-10-09T09:25:10.305Z,23.50
2017-10-09T09:27:39.083Z,23.50
2017-10-09T09:30:07.909Z,23.40
2017-10-09T09:32:38.015Z,23.50
2017-10-09T09:35:08.144Z,23.30
2017-10-09T09:37:37.171Z,23.30
2017-10-09T09:40:07.203Z,23.30
2017-10-09T09:42:36.961Z,23.30
2017-10-09T09:45:07.761Z,23.40
2017-10-09T09:47:36.738Z,23.50
2017-10-09T09:50:05.487Z,23.60
2017-10-09T09:52:34.269Z,23.70
2017-10-09T09:55:03.011Z,23.40
2017-10-09T09:57:31.869Z,23.70
2017-10-09T10:00:00.656Z,23.90
2017-10-09T10:02:32.722Z,24.20
2017-10-09T10:05:01.589Z,24.20
2017-10-09T10:07:30.470Z,24.30
2017-10-09T10:09:59.219Z,24.20
2017-10-09T10:12:28.769Z,23.80
2017-10-09T10:14:57.713Z,23.70
2017-10-09T10:17:27.531Z,23.90
2017-10-09T10:19:56.423Z,23.90
2017-10-09T10:22:26.256Z,24.10
2017-10-09T10:24:55.133Z,24.10
2017-10-09T10:27:23.947Z,23.80
2017-10-09T10:29:52.713Z,23.90
2017-10-09T10:32:21.524Z,24.00
2017-10-09T10:34:50.438Z,23.90
2017-10-09T10:37:20.060Z,23.90
2017-10-09T10:39:48.838Z,23.90
2017-10-09T10:42:17.715Z,23.90
2017-10-09T10:44:46.889Z,23.60
2017-10-09T10:47:16.042Z,23.50
2017-10-09T10:49:45.530Z,23.50
2017-10-09T10:52:14.711Z,23.60
2017-10-09T10:54:43.592Z,23.50
2017-10-09T10:57:12.274Z,23.60
2017-10-09T10:59:41.268Z,23.60
2017-10-09T11:02:11.658Z,23.60
2017-10-09T11:04:40.986Z,23.60
2017-10-09T11:07:09.784Z,23.70
2017-10-09T11:09:38.582Z,23.70
2017-10-09T11:12:07.385Z,23.70
2017-10-09T11:14:35.985Z,23.60
2017-10-09T11:17:04.717Z,23.70
2017-10-09T11:19:33.481Z,23.70
2017-10-09T11:22:03.129Z,23.90
2017-10-09T11:24:31.954Z,23.80
2017-10-09T11:27:00.759Z,23.70
2017-10-09T11:29:30.283Z,23.90
2017-10-09T11:32:00.257Z,23.90
2017-10-09T11:34:29.076Z,23.90
2017-10-09T11:36:57.855Z,23.90
2017-10-09T11:39:26.584Z,23.70
2017-10-09T11:41:55.371Z,23.70
2017-10-09T11:44:24.017Z,23.70
2017-10-09T11:46:52.778Z,23.80
2017-10-09T11:49:21.492Z,23.70
2017-10-09T11:51:50.237Z,23.80
2017-10-09T11:54:19.130Z,23.90
2017-10-09T11:56:47.981Z,23.90
2017-10-09T11:59:16.916Z,24.00
2017-10-09T12:01:46.349Z,23.90
2017-10-09T12:04:16.195Z,24.00
2017-10-09T12:06:46.375Z,24.10
2017-10-09T12:09:17.327Z,23.90
2017-10-09T12:11:47.354Z,24.00
2017-10-09T12:14:18.247Z,23.70
2017-10-09T12:16:47.138Z,23.70
2017-10-09T12:19:16.174Z,23.70
2017-10-09T12:21:45.748Z,23.70
2017-10-09T12:24:15.935Z,23.80
2017-10-09T12:26:45.086Z,23.70
2017-10-09T12:29:14.602Z,23.70
2017-10-09T12:31:43.649Z,23.60
2017-10-09T12:34:12.414Z,23.80
2017-10-09T12:36:42.587Z,23.90
2017-10-09T12:39:11.378Z,23.80
2017-10-09T12:41:40.113Z,23.90
2017-10-09T12:44:09.241Z,23.90
2017-10-09T12:46:38.334Z,23.80
2017-10-09T12:49:07.303Z,23.60
2017-10-09T12:51:35.904Z,23.40
2017-10-09T12:54:04.807Z,23.50
2017-10-09T12:56:33.514Z,23.50
2017-10-09T12:59:02.366Z,23.40
2017-10-09T13:01:31.136Z,23.30
2017-10-09T13:03:59.948Z,23.20
2017-10-09T13:06:28.702Z,23.20
2017-10-09T13:08:57.407Z,23.30
2017-10-09T13:11:26.111Z,23.20
2017-10-09T13:13:54.826Z,23.10
2017-10-09T13:16:23.619Z,23.00
2017-10-09T13:18:52.467Z,22.90
2017-10-09T13:21:21.215Z,22.90
2017-10-09T13:23:50.010Z,23.00
2017-10-09T13:26:19.155Z,23.00
2017-10-09T13:28:47.842Z,23.00
2017-10-09T13:31:16.578Z,22.70
2017-10-09T13:33:45.422Z,22.50
2017-10-09T13:36:14.202Z,22.30
2017-10-09T13:38:43.036Z,22.90
2017-10-09T13:41:12.499Z,23.80
2017-10-09T13:43:41.389Z,23.80
2017-10-09T13:46:10.846Z,23.80
2017-10-09T13:48:40.868Z,24.20
2017-10-09T13:51:09.663Z,24.20
2017-10-09T13:53:38.515Z,24.00
2017-10-09T13:56:08.135Z,24.00
2017-10-09T13:58:37.625Z,24.30
2017-10-09T14:01:06.301Z,24.30
2017-10-09T14:03:35.002Z,24.20
2017-10-09T14:06:03.698Z,24.10
2017-10-09T14:08:32.568Z,23.70
2017-10-09T14:11:01.674Z,23.60
2017-10-09T14:13:30.382Z,23.60
2017-10-09T14:16:00.074Z,23.50
2017-10-09T14:18:28.839Z,23.60
2017-10-09T14:20:57.468Z,23.50
2017-10-09T14:23:26.309Z,23.50
2017-10-09T14:25:55.617Z,23.40
2017-10-09T14:28:25.467Z,23.20
2017-10-09T14:30:55.658Z,23.20
2017-10-09T14:40:51.309Z,23.30
2017-10-09T14:43:20.210Z,23.30
2017-10-09T14:45:48.993Z,23.30
2017-10-09T14:48:17.731Z,23.10
2017-10-09T14:50:47.138Z,23.30
2017-10-09T14:53:15.945Z,23.20
2017-10-09T14:55:44.686Z,23.20
2017-10-09T14:58:14.260Z,23.20
2017-10-09T15:00:49.926Z,23.30
2017-10-09T15:03:26.144Z,23.50
2017-10-09T15:05:56.507Z,23.40
2017-10-09T15:08:26.832Z,23.00
2017-10-09T15:10:59.385Z,23.00
2017-10-09T15:13:30.220Z,22.90
2017-10-09T15:15:59.470Z,23.10
2017-10-09T15:18:28.767Z,23.10
2017-10-09T15:20:59.363Z,23.10
2017-10-09T15:26:32.584Z,23.10
2017-10-09T15:29:03.480Z,23.10
2017-10-09T15:31:36.798Z,23.00
2017-10-09T15:34:07.261Z,23.00
2017-10-09T15:36:36.042Z,22.90
2017-10-09T15:39:05.670Z,22.90
2017-10-09T15:41:37.802Z,22.90
2017-10-09T15:44:06.868Z,22.80
2017-10-09T15:46:35.961Z,22.90
2017-10-09T15:49:05.206Z,23.00
2017-10-09T15:51:34.513Z,22.90
2017-10-09T15:54:03.526Z,22.80
2017-10-09T15:56:37.575Z,22.90
2017-10-09T15:59:12.980Z,22.80
2017-10-09T16:01:42.956Z,22.80
2017-10-09T16:04:13.209Z,22.80
2017-10-09T16:06:46.217Z,22.70
2017-10-09T16:09:15.959Z,22.80
2017-10-09T16:11:46.415Z,22.70
2017-10-09T16:14:18.324Z,22.80
2017-10-09T16:16:48.313Z,22.80
2017-10-09T16:19:23.596Z,22.50
2017-10-09T16:21:52.612Z,22.50
2017-10-09T16:24:21.375Z,22.50
2017-10-09T16:26:50.622Z,22.40
2017-10-09T16:29:19.511Z,22.40
2017-10-09T16:31:50.843Z,22.30
2017-10-09T16:34:22.429Z,22.50
2017-10-09T16:36:51.447Z,22.50
2017-10-09T16:39:20.943Z,22.50
2017-10-09T16:41:50.340Z,22.40
2017-10-09T16:44:24.349Z,22.40
2017-10-09T16:46:56.026Z,22.40
2017-10-09T16:49:24.743Z,22.40
2017-10-09T16:51:53.598Z,22.40
2017-10-09T16:54:22.318Z,22.50
2017-10-09T16:56:57.012Z,22.50
2017-10-09T16:59:27.112Z,22.40
2017-10-09T17:01:59.321Z,22.40
2017-10-09T17:04:33.637Z,22.40
2017-10-09T17:07:03.438Z,22.30
2017-10-09T17:09:32.302Z,22.30
2017-10-09T17:12:03.605Z,22.30
2017-10-09T17:14:32.787Z,21.50
2017-10-09T17:17:03.064Z,22.40
2017-10-09T17:19:44.897Z,22.40
2017-10-09T17:22:17.906Z,22.40
2017-10-09T17:24:51.793Z,22.40
2017-10-09T17:27:21.394Z,22.40
2017-10-09T17:29:51.418Z,22.20
2017-10-09T17:32:23.808Z,22.20
2017-10-09T17:34:56.021Z,22.20
2017-10-09T17:37:32.566Z,22.30
2017-10-09T17:40:04.087Z,22.40
2017-10-09T17:42:33.918Z,22.40
2017-10-09T17:45:03.978Z,22.30
2017-10-09T17:47:33.243Z,22.40
2017-10-09T17:50:03.788Z,22.30
2017-10-09T17:52:39.144Z,22.30
2017-10-09T17:55:10.778Z,22.20
2017-10-09T17:57:51.569Z,22.20
2017-10-09T18:00:21.791Z,22.20
2017-10-09T18:02:50.971Z,22.10
2017-10-09T18:05:20.044Z,22.20
2017-10-09T18:07:52.430Z,22.20
2017-10-09T18:10:24.081Z,22.30
2017-10-09T18:12:54.103Z,22.30
2017-10-09T18:15:23.916Z,22.20
2017-10-09T18:17:52.877Z,22.20
2017-10-09T18:20:22.366Z,22.10
2017-10-09T18:23:21.263Z,22.00
2017-10-09T18:25:51.230Z,22.10
2017-10-09T18:28:20.212Z,22.00
2017-10-09T18:30:49.581Z,22.00
2017-10-09T18:33:18.566Z,21.90
2017-10-09T18:35:47.651Z,22.00
2017-10-09T18:38:16.460Z,22.00
2017-10-09T18:40:45.323Z,21.90
2017-10-09T18:43:14.993Z,21.80
2017-10-09T18:45:44.781Z,21.80
2017-10-09T18:48:13.717Z,21.80
2017-10-09T18:50:42.710Z,21.80
2017-10-09T18:53:12.543Z,21.80
2017-10-09T18:55:41.851Z,21.80
2017-10-09T18:58:10.607Z,21.80
2017-10-09T19:00:45.795Z,21.90
2017-10-09T19:03:23.457Z,21.90
2017-10-09T19:05:58.936Z,21.90
2017-10-09T19:08:37.334Z,21.80
2017-10-09T19:11:24.637Z,21.80
2017-10-09T19:13:56.438Z,21.80
2017-10-09T19:16:25.400Z,21.80
2017-10-09T19:19:00.166Z,21.80
2017-10-09T19:21:32.625Z,21.80
2017-10-09T19:24:04.348Z,21.80
2017-10-09T19:26:38.139Z,21.80
2017-10-09T19:29:08.498Z,21.80
2017-10-09T19:31:37.346Z,21.90
2017-10-09T19:34:19.599Z,21.80
2017-10-09T19:36:49.965Z,21.80
2017-10-09T19:39:21.732Z,21.80
2017-10-09T19:41:50.601Z,21.80
2017-10-09T19:44:19.533Z,21.70
2017-10-09T19:47:04.995Z,21.80
2017-10-09T19:49:40.282Z,21.80
2017-10-09T19:52:10.920Z,21.80
2017-10-09T19:54:39.717Z,21.70
2017-10-09T19:57:09.201Z,21.70
2017-10-09T19:59:38.030Z,21.70
2017-10-09T20:02:06.764Z,21.80
2017-10-09T20:04:35.397Z,21.90
2017-10-09T20:07:04.854Z,21.80
2017-10-09T20:09:33.487Z,21.80
2017-10-09T20:12:02.195Z,21.80
2017-10-09T20:14:30.904Z,21.60
2017-10-09T20:16:59.591Z,21.70
2017-10-09T20:19:29.670Z,21.70
2017-10-09T20:21:58.671Z,21.60
2017-10-09T20:24:28.642Z,21.60
2017-10-09T20:26:59.058Z,21.60
2017-10-09T20:29:30.703Z,21.60
2017-10-09T20:32:03.125Z,21.60
2017-10-09T20:34:33.342Z,21.60
2017-10-09T20:37:03.178Z,21.60
2017-10-09T20:39:33.300Z,21.60
2017-10-09T20:42:02.459Z,21.60
2017-10-09T20:44:31.588Z,21.60
2017-10-09T20:47:01.147Z,21.60
2017-10-09T20:49:31.862Z,21.60
2017-10-09T20:52:01.240Z,21.60
2017-10-09T20:54:30.438Z,21.50
2017-10-09T20:57:00.071Z,21.40
2017-10-09T20:59:28.726Z,21.40
2017-10-09T21:01:57.895Z,21.30
2017-10-09T21:04:26.822Z,21.40
2017-10-09T21:06:56.411Z,21.30
2017-10-09T21:09:25.469Z,21.40
2017-10-09T21:11:54.980Z,21.30
2017-10-09T21:14:23.999Z,21.30
2017-10-09T21:16:56.086Z,21.20
2017-10-09T21:19:25.422Z,21.20
2017-10-09T21:21:54.078Z,21.30
2017-10-09T21:24:24.562Z,21.30
2017-10-09T21:26:53.525Z,21.20
2017-10-09T21:29:23.918Z,21.30
2017-10-09T21:31:52.640Z,21.30
2017-10-09T21:34:21.386Z,21.30
2017-10-09T21:36:50.227Z,21.40
2017-10-09T21:39:18.993Z,21.50
2017-10-09T21:41:47.852Z,21.40
2017-10-09T21:44:17.746Z,21.30
2017-10-09T21:46:47.642Z,21.30
2017-10-09T21:49:17.717Z,21.30
2017-10-09T21:51:46.797Z,21.30
2017-10-09T21:54:15.532Z,21.30
2017-10-09T21:56:44.271Z,21.40
2017-10-09T21:59:13.287Z,21.50
2017-10-09T22:01:43.416Z,21.60
2017-10-09T22:04:12.220Z,21.70
2017-10-09T22:06:41.070Z,21.60
2017-10-09T22:09:10.750Z,21.60
2017-10-09T22:11:41.910Z,21.70
2017-10-09T22:14:11.786Z,21.70
2017-10-09T22:16:40.744Z,21.80
2017-10-09T22:19:09.550Z,21.70
2017-10-09T22:21:39.278Z,21.60
2017-10-09T22:24:09.790Z,21.50
2017-10-09T22:26:38.679Z,21.50
2017-10-09T22:29:09.062Z,21.30
2017-10-09T22:31:38.641Z,21.30
2017-10-09T22:34:07.956Z,21.30
2017-10-09T22:36:36.960Z,21.30
2017-10-09T22:39:06.026Z,21.40
2017-10-09T22:41:35.256Z,21.50
2017-10-09T22:44:04.628Z,21.40
2017-10-09T22:46:33.655Z,21.40
2017-10-09T22:49:02.867Z,21.30
2017-10-09T22:51:31.502Z,21.30
2017-10-09T22:54:01.201Z,21.30
2017-10-09T22:56:31.736Z,21.30
2017-10-09T22:59:00.726Z,21.30
2017-10-09T23:01:29.425Z,21.30
2017-10-09T23:04:00.058Z,21.30
2017-10-09T23:06:28.807Z,21.30
2017-10-09T23:08:57.658Z,21.30
2017-10-09T23:11:27.657Z,21.30
2017-10-09T23:13:56.610Z,21.30
2017-10-09T23:16:25.439Z,21.30
2017-10-09T23:18:57.246Z,21.30
2017-10-09T23:21:26.300Z,21.20
2017-10-09T23:23:55.116Z,21.30
2017-10-09T23:26:23.941Z,21.30
2017-10-09T23:28:53.050Z,21.30
2017-10-09T23:31:22.004Z,21.30
2017-10-09T23:33:51.371Z,21.30
2017-10-09T23:36:20.056Z,21.30
2017-10-09T23:38:49.390Z,21.30
2017-10-09T23:41:18.236Z,21.30
2017-10-09T23:43:47.445Z,21.20
2017-10-09T23:46:16.082Z,21.30
2017-10-09T23:48:45.493Z,21.30
2017-10-09T23:51:15.506Z,21.30
2017-10-09T23:53:45.095Z,21.30
2017-10-09T23:56:14.218Z,21.20
2017-10-09T23:58:43.544Z,21.10
